Haywood NorAm Teck Sprint Qualifier | Zone4.ca



Haywood NorAm Teck Sprint Qualifier

Date: Dec 11, 2010
Official  Results
Location: SOVEREIGN LAKE, B.C.
Host Club: Sovereign Lake Nordic Club

Jury
Technical Director  Claude Chabot 
Chief of Race  Sharon Clarke  
CCC Race Director  Dave Dyer 
 Jury Member  Mike Norton 
Jury Member  James Cunningham 
Jury Member  Shirley Pommier 
Obs. Time: 9:00 AM
Wind Vel:  0 km/hr Wind Dir: none
Air Temp: -5.8 degrees C Snow Temp: -4.8 degrees C
Weather: High overcast Snow Cond: compact

OPEN MEN 1.4 km. Classic   Course Info:  MC: 14m   HD: 22m   TC: 46m 
PL Bib Name Rnk YOB CCCL Club Team Time
1 56 Drew Goldsack 1/48 1981 5835 Rocky Mountain NST 0:03:32.832
2 60 Graham Nishikawa 2/48 1983 12673 Whitehorse AWCA 0:03:33.597
3 58 Michael Sinnott 3/48 1985 13964 Sun Valley SEF   0:03:35.118
4 67 Lars Flora 4/48 1978 12986 APUNSC   0:03:37.322
5 64 David Greer 5/48 1989 13738 Whitehorse CNEPH 0:03:38.560
6 61 Harry Seaton 6/48 1987 13737 Team Hardwood NDC Thunder Bay 0:03:38.922
7 59 Frederic Touchette 7/48 1988 13497 M.S.A. NST  0:03:39.005
8 57 Garrott Kuzzy 8/48 1982 13863 CXC Team   0:03:40.130
9 72 Reese Hanneman 9/48 1989 21122 APUNSC   0:03:40.708
10 69 Colin Rodgers 10/48 1981 15562 Sun Valley SEF Madshus 0:03:41.349
11 63 Jesse Cockney 11/48 1989 13931 Foothills AWCA 0:03:42.213
12 89 Matt Wylie 12/48 1989 13679 Banff Ski Runners   0:03:42.455
13 70 Michael Somppi 13/48 1988 13526 Lappe NDC Thunder Bay 0:03:42.466
14 83 Patrick Stewart-Jones 1/12 1991 14471  Nakkertok Nordique Québec 0:03:42.480
15 78 Graeme Killick 14/48 1989 14133 Banff Ski Runners NST 0:03:42.672
16 71 Bryan Cook 15/48 1983 13413 CXC Team   0:03:43.804
17 73 Thomsen D'Hont 16/48 1988 12916 Yellowknife CVTC 0:03:44.123
18 84 Andy Shields 2/12 1991 14504 Waterloo Region NDC Thunder Bay 0:03:44.317
19 68 Joey Burton 17/48 1990 14148 Overlander AWCA 0:03:44.697
20 86 Etienne Richard 18/48 1990 14054 Skibec CNEPH 0:03:44.784
21 65 Brenton Knight 19/48 1984 17259 APUNSC   0:03:44.838
22 85 Kevin Sandau 20/48 1988 13504 Foothills   0:03:45.154
23 76 Anthony Killick 21/48 1987 13347 Banff Ski Runners   0:03:45.304
24 93 Andrew Stewart-Jones 22/48 1990 14472 Nakkertok Nordique CNEPH 0:03:45.444
25 77 Peter Kling 23/48 1987 17486 APUNSC APUNSC 0:03:45.549
26 80 Gerard Garnier 24/48 1989 13932 Banff Ski Runners   0:03:47.439
27 97 Patrick Johnson 25/48 1989 17263 APUNSC APUNSC 0:03:47.449
28 62 Mark Iverson 26/48 1982 13449 APUNSC APUNSC 0:03:47.553
29 87 Jimmy Gunka 3/12 1991 14417 Big Thunder NDC Thunder Bay 0:03:47.603
30 112 Erik Carleton 27/48 1978 5398 Rocky Mountain RMR 0:03:47.779
31 129 Robin McKeever 28/48 1973 2707 Foothills PNST 0:03:48.001
32 90 Jordan Cascagnette 4/12 1991 14334 Team Hardwood AWCA 0:03:48.089
33 81 Bart Dengel 29/48 1984 16777 APUNSC APUNSC 0:03:48.277
34 107 Knute Johnsgaard 5/12 1992 21623 CNEPH Yukon 0:03:48.330
35 88 Colin Abbott 30/48 1990 14227 Whitehorse Yukon Ski Team 0:03:48.471
35 91 Steffan Lloyd 30/48 1990 14503 Nakkertok Nordique Quebec Team 0:03:48.471
37 98 Raphaël Couturier 1/16 1993 18415 Skibec CNEPH 0:03:49.211
38 100 Chris Darlington 32/48 1982 15635 Boonoona Australia   0:03:49.950
39 110 Martin Schrama 2/16 1992 18392 Banff Ski Runners Alberta 0:03:49.970
40 136 Martin Struna 33/48 1979   Jablonec Nad Nisou   0:03:50.457
41 124 D. Moncion-Groulx 3/16 1993 19561 Nakkertok Nordique   0:03:50.790
42 101 Chris Hamilton 34/48 1989 13690 Big Thunder NDC Thunder Bay 0:03:51.153
43 74 Scott Sullivan 35/48 1989 13718 Big Thunder NDC Thunder Bay 0:03:52.718
44 82 Christopher Butler 36/48 1986 13039 Big Thunder AWCA 0:03:53.258
45 103 Riel Allain 4/16 1992 19562 Nakkertok Nordique the A team 0:03:54.507
46 102 Jeff Wood 5/16 1992 18428 Whitehorse CVTC 0:03:54.569
47 132 Russell Kennedy 37/48 1991 25625 Canmore   0:03:54.693
48 79 Brayton Osgood 38/48 1981 13860 XC Oregon   0:03:55.004
49 92 Bob Thompson 6/12 1991 14312 Team Hardwood AWCA 0:03:55.034
50 116 Sébastien Townsend 6/16 1992 18484 Nakkertok Nordique nakkertok 0:03:55.313
51 114 Jesse Heckrodt 39/48 1985 12908 larch hills Uni BC-Okan 0:03:55.330
52 113 Nansen Weber 7/12 1991 14366 Nakkertok Nordique   0:03:56.472
53 131 Matt Neumann 40/48 1989 14284 Caledonia   0:03:57.342
54 105 Zach Holland 7/16 1992 14628 Banff Ski Runners AWCA 0:03:58.024
55 99 Aidan Lennie 41/48 1989 14235 Nakkertok-ON Ontario Ski Team 0:03:59.192
56 115 Kai Lukowiak 8/12 1991 14564 Foothills   0:04:00.188
57 94 Geoffrey Richards 8/16 1992 18425 Black Jack CVTC 0:04:01.145
58 104 Phil Wood 42/48 1985 13614 Canmore   0:04:02.085
59 106 Dudley Coulter 43/48 1990 18443 Big Thunder NDC Thunder Bay 0:04:02.149
60 126 Paul Dupuis 9/16 1993 14604 Canmore Alberta Ski Team 0:04:02.648
61 95 Leif Lennie 44/48 1990 14616 Nakkertok-ON NDC Thunder Bay 0:04:03.114
62 109 Phillip Bellingham 9/12 1991 23663 Birkebeiner Nordic Ski Club   0:04:04.371
63 96 Kurtis Wenzel 10/12 1991 14552 Rocky Mountain Alberta Ski Team 0:04:04.631
64 108 Xavier Bouchard 11/12 1991 14431 Nakkertok Nordique équipe du Québec 0:04:05.230
65 121 Vincent Prenioslo 10/16 1992 19665 Foothills   0:04:10.349
66 119 Nick Monette 11/16 1993 19580 Team Hardwood Ontario Ski Team 0:04:10.827
67 120 Cole Hetherington 12/16 1992 18393 Sovereign Lake   0:04:13.068
68 130 David Harbocian 45/48 1988 14479 Sovereign Lake   0:04:13.507
69 123 Evan Odell 12/12 1991 14313 Team Hardwood Ontario Ski Team 0:04:14.182
70 125 G. Michaud-Ethier 13/16 1992 14636 Nakkertok Nordique Équipe Québec développement 0:04:14.271
71 118 James Taylor 14/16 1992 19577 Nakkertok-ON Ontario Ski Team 0:04:14.330
72 122 Paul Kovacs 46/48 1990 19702 Birkebiener Nordic Ski Club   0:04:14.720
73 111 Alex Mahoney 15/16 1992 14608 Rocky Mountain AST 0:04:18.514
74 127 Kurt Behnsen 16/16 1992 18881 Telemark   0:04:21.882
75 139 Kevin Farrell 47/48 1975   Leavenworth   0:04:36.687
76 138 Justin Carvitto 48/48 1978   Leavenworth LWSC 0:04:47.977
DNS 66 Leif Zimmermann * 1983 13412 Bridger Ski Foundation   ***
DNS 75 Matt Liebsch * 1983 18845 CXC Team   ***
DNS 117 Glenn Randall * 1986 16772 Bridger Ski Foundation   ***
DNS 128 Brian McKeever * 1979 5880 Foothills   ***
DNS 133 William Meyer * 1993   Bridger Ski Foundation   ***
DNS 134 Cole Morgan * 1994   Bridger Ski Foundation   ***
DNS 135 Akeo Maifeld-Carucci * 1993   Bridger Ski Foundation BSF ***
DNS 137 Sawyer Kesselheim * 1993   Bridger Ski Foundation   ***
DNS 140 Alexander Westesen * 2011   Bridger Ski Foundation Nordic ***


Results are posted through an automated system by licenced clubs. For inquires about result corrections please contact the race organizer.

Copyright 2017 - Zone4 Systems zone4.ca       Privacy Policy     Delivery/Refund Policy     Terms of Service    Contact Zone4